Wetterdaten: Woche 30.11.15 - 06.12.15 (KW49)
Datum Zeit Temp. I. Temp. A. Feuchte I. Feuchte A. Luftdruck Regen Wind Richtung Taupunkt Windchill
30.11.2015 00:00 22,1 °C 8,1 °C 50 % 88 % 1006,0 hPa 4,1 l/m² 25,7 km/h (4 Bft) W-SW 6,3 °C -0,7 °C
30.11.2015 01:00 22,0 °C 8,0 °C 51 % 87 % 1006,3 hPa 0,5 l/m² 24,0 km/h (4 Bft) SW 6,1 °C -0,3 °C
30.11.2015 02:00 21,9 °C 7,7 °C 51 % 87 % 1007,4 hPa 0,0 l/m² 17,8 km/h (3 Bft) W-SW 5,7 °C 1,5 °C
30.11.2015 03:00 21,8 °C 7,1 °C 51 % 89 % 1008,3 hPa 0,0 l/m² 14,8 km/h (3 Bft) SW 5,5 °C 2,2 °C
30.11.2015 04:00 21,8 °C 7,2 °C 51 % 87 % 1009,2 hPa 0,0 l/m² 20,2 km/h (4 Bft) W-SW 5,1 °C -0,1 °C
30.11.2015 05:00 21,8 °C 7,3 °C 51 % 81 % 1010,2 hPa 0,0 l/m² 20,3 km/h (4 Bft) W-SW 4,3 °C -0,1 °C
30.11.2015 06:00 21,8 °C 7,3 °C 51 % 81 % 1011,2 hPa 0,0 l/m² 19,1 km/h (3 Bft) W-SW 4,2 °C 0,4 °C
30.11.2015 07:00 21,8 °C 6,9 °C 50 % 78 % 1012,2 hPa 0,0 l/m² 26,2 km/h (4 Bft) W-SW 3,3 °C -2,5 °C
30.11.2015 08:00 21,8 °C 6,5 °C 50 % 75 % 1013,6 hPa 0,0 l/m² 24,5 km/h (4 Bft) W-SW 2,5 °C -2,6 °C
30.11.2015 09:00 21,9 °C 6,4 °C 50 % 75 % 1014,6 hPa 0,0 l/m² 21,3 km/h (4 Bft) W-SW 2,3 °C -1,6 °C
30.11.2015 10:00 21,9 °C 6,9 °C 50 % 75 % 1015,4 hPa 0,0 l/m² 21,3 km/h (4 Bft) W-SW 2,7 °C -1,0 °C
30.11.2015 11:00 21,9 °C 7,4 °C 49 % 76 % 1015,5 hPa 0,0 l/m² 22,3 km/h (4 Bft) W-SW 3,4 °C -0,8 °C
30.11.2015 12:00 21,8 °C 7,3 °C 48 % 77 % 1015,5 hPa 0,0 l/m² 18,8 km/h (3 Bft) W-SW 3,5 °C 0,6 °C
30.11.2015 13:00 21,6 °C 7,4 °C 46 % 73 % 1015,3 hPa 0,0 l/m² 22,3 km/h (4 Bft) W-SW 3,0 °C -0,7 °C
30.11.2015 14:00 21,7 °C 7,3 °C 47 % 73 % 1014,5 hPa 0,0 l/m² 15,7 km/h (3 Bft) SW 2,8 °C 1,7 °C
30.11.2015 15:00 21,6 °C 7,0 °C 48 % 76 % 1013,5 hPa 0,0 l/m² 16,6 km/h (3 Bft) SW 3,1 °C 1,1 °C
30.11.2015 16:00 21,6 °C 6,0 °C 48 % 82 % 1012,6 hPa 0,0 l/m² 6,8 km/h (2 Bft) SW 3,1 °C 5,0 °C
30.11.2015 17:00 21,5 °C 5,7 °C 48 % 87 % 1011,4 hPa 0,0 l/m² 7,5 km/h (2 Bft) S-SO 3,7 °C 4,5 °C
30.11.2015 18:00 21,5 °C 6,0 °C 47 % 90 % 1010,1 hPa 0,0 l/m² 11,0 km/h (2 Bft) S-SO 4,5 °C 2,8 °C
30.11.2015 19:00 21,5 °C 6,8 °C 49 % 92 % 1008,8 hPa 0,5 l/m² 10,6 km/h (2 Bft) S-SW 5,5 °C 4,0 °C
30.11.2015 20:00 21,6 °C 9,0 °C 49 % 91 % 1008,0 hPa 0,0 l/m² 27,1 km/h (5 Bft) SW 7,6 °C 0,0 °C
30.11.2015 21:00 22,2 °C 9,4 °C 52 % 90 % 1007,1 hPa 0,0 l/m² 28,1 km/h (5 Bft) SW 7,9 °C 0,3 °C
30.11.2015 22:00 22,6 °C 9,7 °C 51 % 89 % 1006,6 hPa 0,0 l/m² 29,0 km/h (5 Bft) SW 7,9 °C 0,5 °C
30.11.2015 23:00 22,3 °C 9,8 °C 50 % 89 % 1006,4 hPa 0,0 l/m² 30,8 km/h (5 Bft) SW 8,1 °C 0,3 °C
01.12.2015 00:00 22,0 °C 9,9 °C 50 % 90 % 1006,8 hPa 0,0 l/m² 31,2 km/h (5 Bft) SW 8,3 °C 0,3 °C
01.12.2015 01:00 21,8 °C 10,3 °C 50 % 90 % 1007,4 hPa 0,0 l/m² 28,8 km/h (5 Bft) SW 8,7 °C 1,4 °C
01.12.2015 02:00 21,8 °C 10,8 °C 50 % 89 % 1009,5 hPa 0,0 l/m² 25,1 km/h (4 Bft) W-SW 9,1 °C 3,0 °C
01.12.2015 03:00 21,8 °C 9,5 °C 50 % 89 % 1012,2 hPa 0,5 l/m² 17,6 km/h (3 Bft) W 7,7 °C 3,9 °C
01.12.2015 04:00 21,7 °C 8,1 °C 50 % 85 % 1014,7 hPa 0,0 l/m² 13,4 km/h (3 Bft) W 5,7 °C 4,1 °C
01.12.2015 05:00 21,6 °C 7,1 °C 50 % 85 % 1016,2 hPa 0,0 l/m² 16,9 km/h (3 Bft) W 4,8 °C 1,2 °C
01.12.2015 06:00 21,6 °C 7,0 °C 50 % 85 % 1017,3 hPa 0,0 l/m² 19,8 km/h (3 Bft) W-SW 4,6 °C -0,4 °C
01.12.2015 07:00 21,6 °C 6,3 °C 49 % 85 % 1017,9 hPa 0,0 l/m² 12,5 km/h (2 Bft) SW 3,9 °C 2,5 °C
01.12.2015 08:00 21,6 °C 5,9 °C 49 % 87 % 1018,9 hPa 0,0 l/m² 10,8 km/h (2 Bft) W-SW 3,8 °C 2,7 °C
01.12.2015 09:00 21,6 °C 6,9 °C 49 % 84 % 1019,9 hPa 0,0 l/m² 11,6 km/h (2 Bft) W-SW 4,4 °C 3,3 °C
01.12.2015 10:00 21,9 °C 8,3 °C 49 % 81 % 1020,4 hPa 0,0 l/m² 11,7 km/h (2 Bft) SW 5,2 °C 4,8 °C
01.12.2015 11:00 22,3 °C 9,4 °C 48 % 77 % 1020,7 hPa 0,0 l/m² 15,6 km/h (3 Bft) W-SW 5,5 °C 4,3 °C
01.12.2015 12:00 22,3 °C 8,3 °C 48 % 80 % 1021,3 hPa 0,0 l/m² 14,8 km/h (3 Bft) SW 5,1 °C 3,5 °C
01.12.2015 13:00 22,1 °C 8,1 °C 49 % 81 % 1021,7 hPa 0,0 l/m² 15,8 km/h (3 Bft) W-SW 5,1 °C 2,6 °C
01.12.2015 14:00 22,0 °C 7,9 °C 49 % 81 % 1022,2 hPa 0,0 l/m² 10,6 km/h (2 Bft) W-SW 4,9 °C 5,0 °C
01.12.2015 15:00 21,9 °C 7,5 °C 49 % 83 % 1022,4 hPa 0,0 l/m² 12,4 km/h (2 Bft) W-SW 4,8 °C 3,6 °C
01.12.2015 16:00 21,8 °C 6,9 °C 49 % 85 % 1022,6 hPa 0,0 l/m² 8,6 km/h (2 Bft) SW 4,5 °C 5,1 °C
01.12.2015 17:00 21,8 °C 6,8 °C 49 % 85 % 1023,0 hPa 0,0 l/m² 7,0 km/h (2 Bft) SW 4,4 °C 5,7 °C
01.12.2015 18:00 21,8 °C 6,3 °C 50 % 86 % 1023,6 hPa 0,0 l/m² 5,5 km/h (2 Bft) S-SW 4,2 °C 5,9 °C
01.12.2015 19:00 22,0 °C 6,7 °C 50 % 86 % 1023,9 hPa 0,0 l/m² 10,1 km/h (2 Bft) SW 4,6 °C 4,0 °C
01.12.2015 20:00 22,0 °C 6,4 °C 50 % 88 % 1024,0 hPa 0,0 l/m² 4,8 km/h (1 Bft) S-SW 4,5 °C 6,2 °C
01.12.2015 21:00 22,2 °C 6,2 °C 50 % 90 % 1023,5 hPa 0,0 l/m² 2,2 km/h (1 Bft) S-SO 4,6 °C 6,2 °C
01.12.2015 22:00 22,5 °C 6,2 °C 50 % 91 % 1023,2 hPa 0,0 l/m² 6,3 km/h (2 Bft) S-SO 4,8 °C 5,5 °C
01.12.2015 23:00 22,3 °C 6,3 °C 49 % 92 % 1023,0 hPa 0,0 l/m² 6,5 km/h (2 Bft) SO 5,1 °C 6,2 °C
02.12.2015 00:00 22,2 °C 7,0 °C 50 % 93 % 1023,0 hPa 0,0 l/m² 6,4 km/h (2 Bft) S 5,9 °C 6,3 °C
02.12.2015 01:00 22,1 °C 7,4 °C 50 % 93 % 1023,0 hPa 0,0 l/m² 13,6 km/h (3 Bft) S-SW 6,3 °C 2,9 °C
02.12.2015 02:00 22,0 °C 8,0 °C 50 % 93 % 1023,2 hPa 0,0 l/m² 15,3 km/h (3 Bft) S-SW 7,0 °C 2,7 °C
02.12.2015 03:00 21,8 °C 9,2 °C 50 % 93 % 1023,1 hPa 0,0 l/m² 23,0 km/h (4 Bft) S-SW 8,1 °C 1,5 °C
02.12.2015 04:00 21,8 °C 9,9 °C 50 % 92 % 1023,1 hPa 0,0 l/m² 20,0 km/h (4 Bft) SW 8,6 °C 3,4 °C
02.12.2015 05:00 21,7 °C 10,4 °C 50 % 89 % 1023,3 hPa 0,0 l/m² 16,7 km/h (3 Bft) W-SW 8,7 °C 5,1 °C
02.12.2015 06:00 21,7 °C 10,4 °C 50 % 88 % 1023,8 hPa 0,0 l/m² 13,3 km/h (3 Bft) SW 8,5 °C 6,6 °C
02.12.2015 07:00 21,6 °C 10,6 °C 50 % 87 % 1024,1 hPa 0,0 l/m² 19,8 km/h (3 Bft) SW 8,6 °C 4,3 °C
02.12.2015 08:00 21,6 °C 10,5 °C 50 % 87 % 1024,9 hPa 0,0 l/m² 21,3 km/h (4 Bft) SW 8,4 °C 3,6 °C
02.12.2015 09:00 21,6 °C 10,3 °C 50 % 87 % 1025,6 hPa 0,0 l/m² 18,9 km/h (3 Bft) S-SW 8,3 °C 4,2 °C
02.12.2015 10:00 21,6 °C 10,2 °C 50 % 87 % 1026,3 hPa 0,0 l/m² 18,2 km/h (3 Bft) S-SW 8,2 °C 4,3 °C
02.12.2015 11:00 21,5 °C 10,2 °C 50 % 86 % 1026,7 hPa 0,0 l/m² 15,5 km/h (3 Bft) SW 8,0 °C 5,2 °C
02.12.2015 12:00 21,6 °C 10,2 °C 50 % 85 % 1026,9 hPa 0,0 l/m² 10,8 km/h (2 Bft) S-SW 7,7 °C 7,6 °C
02.12.2015 13:00 21,5 °C 9,9 °C 50 % 85 % 1026,8 hPa 0,0 l/m² 9,4 km/h (2 Bft) S-SW 7,5 °C 7,9 °C
02.12.2015 14:00 21,5 °C 9,5 °C 50 % 87 % 1026,9 hPa 0,0 l/m² 7,8 km/h (2 Bft) S-SW 7,4 °C 8,6 °C
02.12.2015 15:00 21,5 °C 9,5 °C 50 % 86 % 1026,9 hPa 0,0 l/m² 9,5 km/h (2 Bft) S-SW 7,3 °C 7,5 °C
02.12.2015 16:00 21,5 °C 9,3 °C 50 % 86 % 1027,0 hPa 0,0 l/m² 8,3 km/h (2 Bft) S-SW 7,1 °C 7,8 °C
02.12.2015 17:00 21,5 °C 8,8 °C 51 % 87 % 1027,3 hPa 0,0 l/m² 6,9 km/h (2 Bft) S-SW 6,8 °C 8,3 °C
02.12.2015 18:00 21,7 °C 8,5 °C 51 % 87 % 1027,5 hPa 0,0 l/m² 7,2 km/h (2 Bft) S-SW 6,4 °C 7,7 °C
02.12.2015 19:00 21,8 °C 8,8 °C 52 % 84 % 1027,4 hPa 0,0 l/m² 15,8 km/h (3 Bft) S-SW 6,4 °C 3,5 °C
02.12.2015 20:00 21,9 °C 8,7 °C 52 % 83 % 1027,2 hPa 0,0 l/m² 10,7 km/h (2 Bft) S-SW 6,0 °C 5,9 °C
02.12.2015 21:00 22,1 °C 7,9 °C 54 % 84 % 1027,2 hPa 0,0 l/m² 2,0 km/h (1 Bft) S-SW 5,3 °C 7,8 °C
02.12.2015 22:00 22,3 °C 7,5 °C 54 % 85 % 1027,2 hPa 0,0 l/m² 2,9 km/h (1 Bft) S-SW 5,2 °C 7,5 °C
02.12.2015 23:00 22,3 °C 8,3 °C 52 % 83 % 1027,3 hPa 0,0 l/m² 12,5 km/h (2 Bft) S-SW 5,7 °C 4,6 °C
03.12.2015 00:00 22,0 °C 8,4 °C 52 % 82 % 1027,6 hPa 0,0 l/m² 13,4 km/h (3 Bft) S-SW 5,5 °C 4,1 °C
03.12.2015 01:00 21,9 °C 8,4 °C 52 % 81 % 1027,4 hPa 0,0 l/m² 13,4 km/h (3 Bft) S-SW 5,3 °C 4,1 °C
03.12.2015 02:00 21,8 °C 8,4 °C 52 % 80 % 1027,4 hPa 0,0 l/m² 16,9 km/h (3 Bft) S-SW 5,1 °C 2,5 °C
03.12.2015 03:00 21,7 °C 8,1 °C 52 % 80 % 1027,8 hPa 0,0 l/m² 15,1 km/h (3 Bft) S-SW 4,9 °C 2,9 °C
03.12.2015 04:00 21,7 °C 7,8 °C 52 % 81 % 1028,1 hPa 0,0 l/m² 5,3 km/h (1 Bft) W 4,8 °C 6,8 °C
03.12.2015 05:00 21,7 °C 7,0 °C 52 % 82 % 1028,4 hPa 0,0 l/m² 5,0 km/h (1 Bft) W-SW 4,1 °C 6,3 °C
03.12.2015 06:00 21,7 °C 6,2 °C 51 % 84 % 1028,8 hPa 0,0 l/m² 4,1 km/h (1 Bft) SW 3,7 °C 6,2 °C
03.12.2015 07:00 21,6 °C 5,3 °C 50 % 85 % 1029,1 hPa 0,0 l/m² 3,6 km/h (1 Bft) SW 3,0 °C 5,3 °C
03.12.2015 08:00 21,6 °C 4,7 °C 50 % 87 % 1029,7 hPa 0,0 l/m² 2,5 km/h (1 Bft) SW 2,7 °C 4,5 °C
03.12.2015 09:00 22,0 °C 6,7 °C 50 % 85 % 1029,7 hPa 0,0 l/m² 2,7 km/h (1 Bft) SW 4,4 °C 6,6 °C
03.12.2015 10:00 22,5 °C 7,9 °C 49 % 83 % 1029,5 hPa 0,0 l/m² 11,2 km/h (2 Bft) S-SW 5,1 °C 4,6 °C
03.12.2015 11:00 22,7 °C 9,0 °C 49 % 81 % 1029,4 hPa 0,0 l/m² 9,9 km/h (2 Bft) S-SW 5,9 °C 6,7 °C
03.12.2015 12:00 23,0 °C 9,9 °C 49 % 77 % 1029,1 hPa 0,0 l/m² 11,1 km/h (2 Bft) S 6,1 °C 7,0 °C
03.12.2015 13:00 23,2 °C 10,1 °C 49 % 74 % 1028,6 hPa 0,0 l/m² 14,3 km/h (3 Bft) S 5,8 °C 5,7 °C
03.12.2015 14:00 23,0 °C 8,8 °C 49 % 78 % 1028,5 hPa 0,0 l/m² 10,0 km/h (2 Bft) S-SO 5,1 °C 6,3 °C
03.12.2015 15:00 22,7 °C 8,3 °C 49 % 80 % 1028,2 hPa 0,0 l/m² 11,0 km/h (2 Bft) S-SO 5,1 °C 5,2 °C
03.12.2015 16:00 22,5 °C 6,4 °C 48 % 83 % 1027,9 hPa 0,0 l/m² 7,7 km/h (2 Bft) S-SO 3,7 °C 5,2 °C
03.12.2015 17:00 22,0 °C 4,8 °C 45 % 85 % 1027,9 hPa 0,0 l/m² 4,6 km/h (1 Bft) S-SO 2,6 °C 4,7 °C
03.12.2015 18:00 22,0 °C 4,0 °C 47 % 87 % 1027,9 hPa 0,0 l/m² 2,2 km/h (1 Bft) S-SO 2,1 °C 4,0 °C
03.12.2015 19:00 22,1 °C 3,5 °C 48 % 88 % 1026,8 hPa 0,0 l/m² 1,0 km/h (0 Bft) O-SO 1,7 °C 3,5 °C
03.12.2015 20:00 22,2 °C 3,4 °C 48 % 89 % 1026,5 hPa 0,0 l/m² 1,8 km/h (1 Bft) S-SO 1,8 °C 3,4 °C
03.12.2015 21:00 22,3 °C 3,6 °C 49 % 89 % 1026,0 hPa 0,0 l/m² 4,5 km/h (1 Bft) S-SO 2,0 °C 3,3 °C
03.12.2015 22:00 22,7 °C 3,5 °C 50 % 89 % 1025,1 hPa 0,0 l/m² 2,1 km/h (1 Bft) S-SO 1,8 °C 3,5 °C
03.12.2015 23:00 22,6 °C 2,6 °C 49 % 90 % 1024,3 hPa 0,0 l/m² 0,9 km/h (0 Bft) O-SO 1,1 °C 2,6 °C
04.12.2015 00:00 22,4 °C 1,8 °C 49 % 91 % 1023,6 hPa 0,0 l/m² 0,4 km/h (0 Bft) W-NW 0,5 °C 1,8 °C
04.12.2015 01:00 22,4 °C 3,0 °C 49 % 92 % 1022,6 hPa 0,0 l/m² 6,1 km/h (2 Bft) SO 1,9 °C 1,9 °C
04.12.2015 02:00 22,4 °C 4,0 °C 49 % 92 % 1022,2 hPa 0,0 l/m² 6,7 km/h (2 Bft) SO 2,8 °C 2,4 °C
04.12.2015 03:00 22,3 °C 4,4 °C 49 % 90 % 1021,6 hPa 0,0 l/m² 11,4 km/h (2 Bft) S-SO 2,9 °C 0,6 °C
04.12.2015 04:00 22,3 °C 5,0 °C 49 % 88 % 1021,0 hPa 0,0 l/m² 13,3 km/h (3 Bft) SO 3,2 °C 0,1 °C
04.12.2015 05:00 22,3 °C 5,0 °C 49 % 87 % 1020,6 hPa 0,0 l/m² 8,5 km/h (2 Bft) S-SO 3,0 °C 3,1 °C
04.12.2015 06:00 22,2 °C 5,1 °C 49 % 87 % 1020,7 hPa 0,0 l/m² 10,5 km/h (2 Bft) S 3,0 °C 2,0 °C
04.12.2015 07:00 22,1 °C 6,5 °C 47 % 80 % 1020,7 hPa 0,0 l/m² 7,5 km/h (2 Bft) O-SO 3,3 °C 5,1 °C
04.12.2015 08:00 22,0 °C 6,8 °C 48 % 80 % 1021,2 hPa 0,0 l/m² 13,1 km/h (3 Bft) S-SW 3,5 °C 2,6 °C
04.12.2015 09:00 22,0 °C 7,2 °C 48 % 79 % 1022,2 hPa 0,0 l/m² 20,1 km/h (4 Bft) SW 3,9 °C -0,0 °C
04.12.2015 10:00 21,9 °C 7,5 °C 48 % 79 % 1023,0 hPa 0,0 l/m² 28,2 km/h (5 Bft) S-SW 4,1 °C -2,4 °C
04.12.2015 11:00 21,9 °C 7,3 °C 48 % 84 % 1024,1 hPa 0,0 l/m² 22,8 km/h (4 Bft) S-SW 4,8 °C -1,0 °C
04.12.2015 12:00 21,8 °C 7,6 °C 48 % 86 % 1024,6 hPa 0,0 l/m² 21,9 km/h (4 Bft) S-SW 5,4 °C -0,2 °C
04.12.2015 13:00 21,8 °C 8,1 °C 48 % 86 % 1025,4 hPa 0,0 l/m² 24,4 km/h (4 Bft) SW 5,9 °C -0,3 °C
04.12.2015 14:00 21,7 °C 8,2 °C 48 % 86 % 1026,0 hPa 0,0 l/m² 24,8 km/h (4 Bft) S-SW 6,1 °C -0,3 °C
04.12.2015 15:00 21,6 °C 7,9 °C 48 % 88 % 1027,0 hPa 0,0 l/m² 10,4 km/h (2 Bft) S-SW 5,9 °C 5,0 °C
04.12.2015 16:00 21,6 °C 6,8 °C 48 % 89 % 1028,0 hPa 0,0 l/m² 10,9 km/h (2 Bft) SW 5,1 °C 3,6 °C
04.12.2015 17:00 21,6 °C 6,1 °C 49 % 90 % 1028,9 hPa 0,0 l/m² 10,0 km/h (2 Bft) S-SW 4,6 °C 3,2 °C
04.12.2015 18:00 21,7 °C 4,8 °C 49 % 91 % 1029,5 hPa 0,0 l/m² 5,0 km/h (1 Bft) W-SW 3,6 °C 4,3 °C
04.12.2015 19:00 21,8 °C 3,7 °C 49 % 92 % 1030,0 hPa 0,0 l/m² 1,3 km/h (1 Bft) O-NO 2,6 °C 3,7 °C
04.12.2015 20:00 21,9 °C 4,1 °C 50 % 93 % 1030,3 hPa 0,0 l/m² 5,7 km/h (2 Bft) N-NO 3,0 °C 3,1 °C
04.12.2015 21:00 22,1 °C 5,4 °C 49 % 93 % 1030,3 hPa 0,0 l/m² 11,4 km/h (2 Bft) SW 4,4 °C 1,9 °C
04.12.2015 22:00 22,4 °C 5,8 °C 49 % 92 % 1030,1 hPa 0,0 l/m² 15,5 km/h (3 Bft) SW 4,6 °C 0,0 °C
04.12.2015 23:00 22,3 °C 5,4 °C 49 % 91 % 1030,1 hPa 0,0 l/m² 8,5 km/h (2 Bft) S-SW 4,1 °C 3,3 °C
05.12.2015 00:00 22,1 °C 4,9 °C 49 % 91 % 1030,3 hPa 0,0 l/m² 6,6 km/h (2 Bft) S-SW 3,6 °C 3,3 °C
05.12.2015 01:00 22,0 °C 4,9 °C 49 % 91 % 1030,5 hPa 0,0 l/m² 10,3 km/h (2 Bft) S 3,5 °C 1,8 °C
05.12.2015 02:00 21,8 °C 3,8 °C 49 % 91 % 1030,1 hPa 0,0 l/m² 8,2 km/h (2 Bft) S 2,6 °C 2,1 °C
05.12.2015 03:00 21,8 °C 3,0 °C 49 % 92 % 1030,2 hPa 0,0 l/m² 6,3 km/h (2 Bft) S-SO 1,8 °C 2,3 °C
05.12.2015 04:00 21,8 °C 3,2 °C 50 % 92 % 1029,6 hPa 0,0 l/m² 8,1 km/h (2 Bft) S-SO 2,1 °C 1,5 °C
05.12.2015 05:00 21,8 °C 3,9 °C 50 % 92 % 1028,6 hPa 0,0 l/m² 8,2 km/h (2 Bft) SO 2,7 °C 2,0 °C
05.12.2015 06:00 21,8 °C 3,6 °C 50 % 91 % 1028,9 hPa 0,0 l/m² 6,3 km/h (2 Bft) S-SO 2,2 °C 2,2 °C
05.12.2015 07:00 21,8 °C 3,1 °C 50 % 91 % 1028,8 hPa 0,0 l/m² 9,6 km/h (2 Bft) S 1,8 °C 0,3 °C
05.12.2015 08:00 21,8 °C 3,9 °C 50 % 90 % 1028,8 hPa 0,0 l/m² 9,6 km/h (2 Bft) S-SO 2,4 °C 1,2 °C
05.12.2015 09:00 22,0 °C 4,9 °C 49 % 89 % 1028,5 hPa 0,0 l/m² 16,1 km/h (3 Bft) S 3,1 °C -1,4 °C
05.12.2015 10:00 22,0 °C 6,4 °C 47 % 86 % 1028,2 hPa 0,0 l/m² 17,5 km/h (3 Bft) S 4,2 °C -0,2 °C
05.12.2015 11:00 22,1 °C 7,1 °C 48 % 84 % 1026,9 hPa 0,0 l/m² 21,0 km/h (4 Bft) S 4,5 °C -0,7 °C
05.12.2015 12:00 22,2 °C 7,4 °C 48 % 83 % 1026,5 hPa 0,0 l/m² 18,0 km/h (3 Bft) S-SW 4,6 °C 0,8 °C
05.12.2015 13:00 22,1 °C 7,7 °C 49 % 79 % 1025,7 hPa 0,0 l/m² 19,3 km/h (3 Bft) S-SW 4,3 °C 0,6 °C
05.12.2015 14:00 22,0 °C 7,1 °C 49 % 79 % 1025,9 hPa 0,0 l/m² 12,3 km/h (2 Bft) S-SW 3,7 °C 3,2 °C
05.12.2015 15:00 21,9 °C 6,3 °C 49 % 80 % 1025,8 hPa 0,0 l/m² 6,7 km/h (2 Bft) SW 3,1 °C 5,5 °C
05.12.2015 16:00 21,8 °C 4,8 °C 49 % 83 % 1025,7 hPa 0,0 l/m² 4,8 km/h (1 Bft) S-SO 2,2 °C 4,6 °C
05.12.2015 17:00 21,8 °C 5,2 °C 49 % 85 % 1025,1 hPa 0,0 l/m² 11,5 km/h (2 Bft) S-SO 2,8 °C 1,6 °C
05.12.2015 18:00 21,8 °C 6,0 °C 49 % 82 % 1024,5 hPa 0,0 l/m² 17,6 km/h (3 Bft) S-SO 3,2 °C -0,6 °C
05.12.2015 19:00 21,9 °C 6,1 °C 50 % 81 % 1024,6 hPa 0,0 l/m² 14,6 km/h (3 Bft) S-SO 3,1 °C 0,9 °C
05.12.2015 20:00 22,3 °C 5,5 °C 50 % 82 % 1024,7 hPa 0,0 l/m² 8,6 km/h (2 Bft) SO 2,7 °C 3,5 °C
05.12.2015 21:00 22,7 °C 4,6 °C 51 % 84 % 1024,6 hPa 0,0 l/m² 7,7 km/h (2 Bft) SO 2,2 °C 1,9 °C
05.12.2015 22:00 22,8 °C 5,8 °C 49 % 83 % 1023,9 hPa 0,0 l/m² 25,7 km/h (4 Bft) S-SW 3,1 °C -3,8 °C
05.12.2015 23:00 22,4 °C 6,5 °C 49 % 80 % 1024,0 hPa 0,0 l/m² 22,9 km/h (4 Bft) S 3,2 °C -2,1 °C
06.12.2015 00:00 22,2 °C 5,9 °C 49 % 81 % 1023,9 hPa 0,0 l/m² 13,5 km/h (3 Bft) S 2,9 °C 1,3 °C
06.12.2015 01:00 22,0 °C 5,1 °C 49 % 83 % 1023,3 hPa 0,0 l/m² 13,1 km/h (3 Bft) S-SO 2,5 °C 0,4 °C
06.12.2015 02:00 22,0 °C 5,2 °C 50 % 85 % 1023,0 hPa 0,0 l/m² 15,1 km/h (3 Bft) S-SO 2,9 °C -0,3 °C
06.12.2015 03:00 21,8 °C 5,8 °C 50 % 84 % 1021,6 hPa 0,0 l/m² 25,9 km/h (4 Bft) S-SO 3,4 °C -4,0 °C
06.12.2015 04:00 21,8 °C 6,1 °C 50 % 84 % 1020,9 hPa 0,0 l/m² 27,5 km/h (5 Bft) S 3,7 °C -4,1 °C
06.12.2015 05:00 21,8 °C 5,6 °C 50 % 85 % 1020,9 hPa 0,0 l/m² 26,1 km/h (4 Bft) S 3,3 °C -4,4 °C
06.12.2015 06:00 21,7 °C 5,5 °C 50 % 85 % 1020,2 hPa 0,0 l/m² 30,8 km/h (5 Bft) S 3,3 °C -5,7 °C
06.12.2015 07:00 21,7 °C 5,9 °C 50 % 84 % 1021,2 hPa 0,0 l/m² 18,0 km/h (3 Bft) S-SW 3,4 °C -0,4 °C
06.12.2015 08:00 22,1 °C 5,7 °C 50 % 84 % 1022,1 hPa 0,0 l/m² 15,2 km/h (3 Bft) S-SW 3,2 °C 0,1 °C
06.12.2015 09:00 22,9 °C 7,2 °C 48 % 80 % 1021,8 hPa 0,0 l/m² 16,8 km/h (3 Bft) S-SW 4,1 °C 1,1 °C
06.12.2015 10:00 22,6 °C 8,9 °C 48 % 76 % 1022,6 hPa 0,0 l/m² 22,0 km/h (4 Bft) SW 4,9 °C 1,5 °C
06.12.2015 11:00 22,6 °C 9,0 °C 48 % 78 % 1022,9 hPa 0,0 l/m² 24,4 km/h (4 Bft) S-SW 5,3 °C 0,7 °C
06.12.2015 12:00 22,6 °C 9,3 °C 47 % 79 % 1022,8 hPa 0,0 l/m² 28,7 km/h (5 Bft) SW 5,8 °C 0,1 °C
06.12.2015 13:00 22,4 °C 9,8 °C 47 % 78 % 1022,7 hPa 0,0 l/m² 25,9 km/h (4 Bft) S-SW 6,3 °C 1,6 °C
06.12.2015 14:00 22,2 °C 10,7 °C 47 % 77 % 1022,5 hPa 0,0 l/m² 22,3 km/h (4 Bft) S-SW 6,9 °C 3,7 °C
06.12.2015 15:00 22,1 °C 10,4 °C 47 % 77 % 1022,8 hPa 0,0 l/m² 18,6 km/h (3 Bft) SW 6,6 °C 4,5 °C
06.12.2015 16:00 21,9 °C 9,2 °C 48 % 79 % 1022,9 hPa 0,0 l/m² 19,2 km/h (3 Bft) S-SW 5,9 °C 2,9 °C
06.12.2015 17:00 21,9 °C 8,7 °C 48 % 80 % 1023,0 hPa 0,0 l/m² 17,6 km/h (3 Bft) S-SW 5,5 °C 2,7 °C
06.12.2015 18:00 21,9 °C 8,1 °C 49 % 83 % 1023,6 hPa 0,0 l/m² 17,2 km/h (3 Bft) S-SW 5,3 °C 2,0 °C
06.12.2015 19:00 22,0 °C 8,1 °C 50 % 83 % 1024,4 hPa 0,0 l/m² 12,2 km/h (2 Bft) S 5,3 °C 4,6 °C
06.12.2015 20:00 22,3 °C 9,0 °C 51 % 82 % 1024,8 hPa 0,0 l/m² 14,1 km/h (3 Bft) S-SW 6,1 °C 4,5 °C
06.12.2015 21:00 22,8 °C 10,0 °C 52 % 81 % 1025,0 hPa 0,0 l/m² 20,0 km/h (4 Bft) S-SW 6,9 °C 3,6 °C
06.12.2015 22:00 23,0 °C 10,8 °C 50 % 79 % 1025,4 hPa 0,0 l/m² 24,1 km/h (4 Bft) S-SW 7,3 °C 3,2 °C
06.12.2015 23:00 22,6 °C 10,7 °C 50 % 80 % 1025,9 hPa 0,0 l/m² 26,2 km/h (4 Bft) SW 7,3 °C 2,5 °C
Min-Datum _ 30.11.15 04.12.15 03.12.15 30.11.15 30.11.15 - 05.12.15 - 04.12.15 06.12.15
_ Min-Zeit 19:00 00:32 17:00 14:00 00:16 - 21:04 - 00:32 06:38
Minimum _ 21,4 °C 1,4 °C 43 % 71 % 1005,6 hPa - 0,0 km/h (0 Bft) - 0,1 °C -7,7 °C
Max-Datum _ 06.12.15 01.12.15 02.12.15 05.12.15 05.12.15 30.11.15 06.12.15 - 01.12.15 02.12.15
_ Max-Zeit 09:00 02:20 22:00 04:20 01:08 00:02 12:24 - 02:20 12:04
Maximum _ 23,7 °C 11,1 °C 54 % 93 % 1030,8 hPa 4,1 l/m² 47,9 km/h
SW (6 Bft)
- 9,4 °C 10,3 °C
Durchschnitt _ 22,0 °C 7,1 °C 49 % 85 % 1022,7 hPa #5,7 l/m² 14,1 km/h (3 Bft) S-SW 4,7 °C 2,7 °C
© 2009 Mathias Hoßbach